Time;durP1;ratioP1;P1;durP2;ratioP2;P2;SDS_P1;SDS_P2;PMS_P1;PMS_P2;Temp;Humidity;BMP_temperature;BMP_pressure;BME280_temperature;BME280_humidity;BME280_pressure;Samples;Min_cycle;Max_cycle;Signal;HPM_P1;HPM_P2
2023/10/13 00:00:34;;;;;;;0.35;0.35;;;13.80;99.90;;;;;;4385235;32;20081;-60
2023/10/13 00:03:00;;;;;;;0.88;0.82;;;13.80;99.90;;;;;;4387372;32;20094;-59
2023/10/13 00:05:28;;;;;;;0.30;0.30;;;13.70;99.90;;;;;;4399777;32;20511;-59
2023/10/13 00:07:54;;;;;;;0.40;0.40;;;13.70;99.90;;;;;;4395947;32;20094;-59
2023/10/13 00:10:19;;;;;;;0.60;0.60;;;13.70;99.90;;;;;;4385217;32;20261;-59
2023/10/13 00:12:52;;;;;;;0.40;0.40;;;13.80;99.90;;;;;;4398129;32;20066;-60
2023/10/13 00:15:21;;;;;;;0.65;0.65;;;13.80;99.90;;;;;;4389423;32;20444;-60
2023/10/13 00:17:46;;;;;;;0.90;0.50;;;13.80;99.90;;;;;;4383306;32;20185;-58
2023/10/13 00:20:28;;;;;;;5.25;2.47;;;13.80;99.90;;;;;;4399706;32;20141;-59
2023/10/13 00:22:56;;;;;;;0.30;0.30;;;13.70;99.90;;;;;;4398108;32;20624;-59
2023/10/13 00:25:26;;;;;;;0.32;0.32;;;13.70;99.90;;;;;;4403016;32;20078;-60
2023/10/13 00:27:52;;;;;;;0.50;0.50;;;13.70;99.90;;;;;;4400073;32;20105;-60
2023/10/13 00:30:33;;;;;;;0.40;0.40;;;13.60;99.90;;;;;;4401663;32;20069;-60
2023/10/13 00:32:59;;;;;;;;;;;13.70;99.90;;;;;;4403957;32;20101;-58
2023/10/13 00:35:29;;;;;;;0.40;0.40;;;13.70;99.90;;;;;;4402364;32;20334;-59
2023/10/13 00:37:56;;;;;;;5.47;0.68;;;13.70;99.90;;;;;;4385803;32;20106;-60
2023/10/13 00:43:31;;;;;;;0.30;0.30;;;13.70;99.90;;;;;;4385224;32;20118;-60
2023/10/13 00:46:19;;;;;;;0.30;0.30;;;13.70;99.90;;;;;;4381210;32;20077;-60
2023/10/13 00:48:33;;;;;;;0.32;0.32;;;13.70;99.90;;;;;;4377098;32;20098;-60
2023/10/13 00:51:02;;;;;;;0.45;0.45;;;13.70;99.90;;;;;;4385300;32;20087;-60
2023/10/13 00:53:30;;;;;;;0.47;0.47;;;13.70;99.90;;;;;;4388575;32;20074;-60
2023/10/13 00:55:56;;;;;;;0.55;0.55;;;13.70;99.90;;;;;;4399647;32;20082;-60
2023/10/13 00:58:22;;;;;;;0.40;0.40;;;13.70;99.90;;;;;;4398707;32;20153;-60
2023/10/13 01:00:56;;;;;;;0.30;0.30;;;13.70;99.90;;;;;;4384224;32;20058;-60
2023/10/13 01:03:26;;;;;;;0.37;0.37;;;13.70;99.90;;;;;;4399942;32;20066;-60
2023/10/13 01:05:54;;;;;;;0.30;0.30;;;13.70;99.90;;;;;;4385272;32;20093;-60
2023/10/13 01:08:34;;;;;;;0.95;0.60;;;13.70;99.90;;;;;;4383552;32;20239;-60
2023/10/13 01:11:00;;;;;;;0.40;0.40;;;13.70;99.90;;;;;;4403460;32;20474;-60
2023/10/13 01:13:26;;;;;;;2.58;0.60;;;13.70;99.90;;;;;;4397658;32;20078;-60
2023/10/13 01:15:52;;;;;;;0.40;0.40;;;13.70;99.90;;;;;;4398983;32;20090;-59
2023/10/13 01:18:18;;;;;;;0.37;0.37;;;13.70;99.90;;;;;;4398137;32;20077;-59
2023/10/13 01:20:45;;;;;;;0.50;0.45;;;13.70;99.90;;;;;;4399665;32;20739;-59
2023/10/13 01:23:19;;;;;;;0.30;0.30;;;13.70;99.90;;;;;;4388658;32;20651;-60
2023/10/13 01:25:45;;;;;;;1.25;0.55;;;13.70;99.90;;;;;;4385688;32;20069;-60
2023/10/13 01:28:16;;;;;;;0.40;0.40;;;13.70;99.90;;;;;;4384280;32;20491;-59
2023/10/13 01:30:42;;;;;;;0.85;0.85;;;13.70;99.90;;;;;;4387765;32;20439;-59
2023/10/13 01:33:10;;;;;;;0.60;0.60;;;13.70;99.90;;;;;;4385420;32;20102;-59
2023/10/13 01:35:41;;;;;;;0.40;0.40;;;13.70;99.90;;;;;;4401808;32;20089;-59
2023/10/13 01:38:08;;;;;;;1.08;0.90;;;13.80;99.90;;;;;;4402005;32;20077;-59
2023/10/13 01:40:35;;;;;;;0.57;0.57;;;13.80;99.90;;;;;;4399788;32;20097;-59
2023/10/13 01:43:04;;;;;;;0.47;0.47;;;13.80;99.90;;;;;;4386062;32;20090;-58
2023/10/13 01:45:30;;;;;;;0.43;0.43;;;13.80;99.90;;;;;;4396459;32;20106;-60
2023/10/13 01:47:56;;;;;;;1.17;0.88;;;13.80;99.90;;;;;;4403660;32;20475;-60
2023/10/13 01:50:29;;;;;;;0.60;0.60;;;13.80;99.90;;;;;;4384615;32;20090;-60
2023/10/13 01:53:05;;;;;;;0.40;0.40;;;13.80;99.90;;;;;;4389303;32;20129;-59
2023/10/13 01:55:36;;;;;;;4.53;0.82;;;13.80;99.90;;;;;;4397231;32;20108;-60
2023/10/13 01:58:01;;;;;;;0.40;0.40;;;13.70;99.90;;;;;;4395546;32;20394;-59
2023/10/13 02:00:31;;;;;;;0.30;0.30;;;13.70;99.90;;;;;;4383914;32;20097;-61
2023/10/13 02:03:00;;;;;;;0.30;0.30;;;13.70;99.90;;;;;;4402888;32;21477;-59
2023/10/13 02:05:32;;;;;;;2.85;1.08;;;13.70;99.90;;;;;;4385368;32;20106;-60
2023/10/13 02:08:07;;;;;;;0.62;0.62;;;13.70;99.90;;;;;;4398837;32;20070;-60
2023/10/13 02:10:33;;;;;;;3.62;1.10;;;13.70;99.90;;;;;;4398261;32;20181;-59
2023/10/13 02:12:59;;;;;;;2.30;0.62;;;13.70;99.90;;;;;;4397490;32;20216;-60
2023/10/13 02:15:26;;;;;;;2.30;0.60;;;13.70;99.90;;;;;;4375385;32;20474;-60
2023/10/13 02:17:54;;;;;;;0.68;0.68;;;13.70;99.90;;;;;;4396313;32;20126;-59
2023/10/13 02:20:23;;;;;;;0.40;0.40;;;13.70;99.90;;;;;;4387736;32;20531;-60
2023/10/13 02:22:49;;;;;;;0.60;0.60;;;13.80;99.90;;;;;;4370129;32;20090;-60
2023/10/13 02:25:35;;;;;;;2.62;0.68;;;13.80;99.90;;;;;;4380228;32;20156;-60
2023/10/13 02:28:02;;;;;;;0.40;0.40;;;13.90;99.90;;;;;;4372149;32;20082;-60
2023/10/13 02:30:27;;;;;;;0.40;0.40;;;13.90;99.90;;;;;;4381991;32;20086;-58
2023/10/13 02:32:55;;;;;;;0.68;0.68;;;14.00;99.90;;;;;;4367725;32;20130;-59
2023/10/13 02:35:29;;;;;;;2.28;0.77;;;14.00;99.90;;;;;;4384055;32;20074;-60
2023/10/13 02:38:05;;;;;;;0.52;0.52;;;13.90;99.90;;;;;;4378963;32;20085;-60
2023/10/13 02:40:35;;;;;;;0.95;0.65;;;13.90;99.90;;;;;;4381435;32;20530;-60
2023/10/13 02:43:01;;;;;;;0.40;0.40;;;13.80;99.90;;;;;;4387142;32;20063;-59
2023/10/13 02:45:26;;;;;;;2.12;1.48;;;13.80;99.90;;;;;;4383883;32;20444;-59
2023/10/13 02:48:10;;;;;;;6.68;0.77;;;13.80;99.90;;;;;;4382933;32;20057;-60
2023/10/13 02:50:38;;;;;;;0.40;0.40;;;13.80;99.90;;;;;;4381082;32;20648;-60
2023/10/13 02:53:12;;;;;;;0.50;0.50;;;13.80;99.90;;;;;;4368173;32;20081;-60
2023/10/13 02:55:39;;;;;;;3.50;0.98;;;13.80;99.90;;;;;;4380605;32;20139;-60
2023/10/13 02:58:04;;;;;;;0.40;0.40;;;13.70;99.90;;;;;;4382632;32;20094;-60
2023/10/13 03:00:31;;;;;;;0.43;0.43;;;13.80;99.90;;;;;;4370416;32;20844;-59
2023/10/13 03:02:58;;;;;;;0.40;0.40;;;13.80;99.90;;;;;;4380822;32;20090;-60
2023/10/13 03:05:29;;;;;;;0.70;0.70;;;13.80;99.90;;;;;;4383721;32;20101;-60
2023/10/13 03:07:55;;;;;;;0.90;0.70;;;13.80;99.90;;;;;;4380685;32;20570;-61
2023/10/13 03:10:21;;;;;;;0.40;0.40;;;13.80;99.90;;;;;;4380382;32;20106;-59
2023/10/13 03:12:48;;;;;;;0.47;0.47;;;13.80;99.90;;;;;;4384674;32;20094;-60
2023/10/13 03:15:17;;;;;;;0.80;0.55;;;13.80;99.90;;;;;;4383748;32;20094;-61
2023/10/13 03:17:44;;;;;;;1.10;1.02;;;13.80;99.90;;;;;;4370191;32;20577;-60
2023/10/13 03:20:13;;;;;;;3.00;1.75;;;13.80;99.90;;;;;;4377956;32;20128;-60
2023/10/13 03:22:39;;;;;;;0.50;0.50;;;13.80;99.90;;;;;;4397492;32;20070;-59
2023/10/13 03:25:06;;;;;;;9.10;1.37;;;13.80;99.90;;;;;;4399145;32;20149;-61
2023/10/13 03:28:05;;;;;;;3.03;0.60;;;13.80;99.90;;;;;;4395648;32;20102;-60
2023/10/13 03:30:20;;;;;;;0.57;0.47;;;13.80;99.90;;;;;;4387915;32;20089;-59
2023/10/13 03:32:53;;;;;;;0.90;0.90;;;13.80;99.90;;;;;;4384933;32;20086;-59
2023/10/13 03:35:54;;;;;;;0.60;0.60;;;13.90;99.90;;;;;;4386169;32;20247;-60
2023/10/13 03:38:14;;;;;;;3.85;0.60;;;13.90;99.90;;;;;;4376668;32;20094;-61
2023/10/13 03:40:40;;;;;;;7.53;0.52;;;13.90;99.90;;;;;;4398204;32;20148;-60
2023/10/13 03:43:09;;;;;;;1.87;1.02;;;13.90;99.90;;;;;;4374966;32;20472;-60
2023/10/13 03:45:38;;;;;;;0.40;0.40;;;13.90;99.90;;;;;;4398826;32;20086;-60
2023/10/13 03:48:09;;;;;;;3.70;1.45;;;14.00;99.90;;;;;;4400231;32;20467;-58
2023/10/13 03:50:36;;;;;;;;;;;14.00;99.90;;;;;;4396895;32;20089;-59
2023/10/13 03:53:02;;;;;;;1.55;0.70;;;14.00;99.90;;;;;;4387584;32;19962;-60
2023/10/13 03:55:29;;;;;;;0.52;0.52;;;14.00;99.90;;;;;;4386816;32;20106;-59
2023/10/13 03:57:55;;;;;;;3.25;0.85;;;13.90;99.90;;;;;;4396727;32;20074;-60
2023/10/13 04:00:24;;;;;;;0.93;0.93;;;14.00;99.90;;;;;;4400544;32;20077;-59
2023/10/13 04:03:06;;;;;;;2.28;0.75;;;14.00;99.90;;;;;;4388172;32;20085;-59
2023/10/13 04:05:38;;;;;;;0.62;0.62;;;14.00;99.90;;;;;;4387028;32;20459;-60
2023/10/13 04:16:54;;;;;;;0.47;0.47;;;14.00;99.90;;;;;;4396656;32;20097;-59
2023/10/13 04:18:50;;;;;;;1.05;0.90;;;13.90;99.90;;;;;;4388863;32;20082;-60
2023/10/13 04:21:39;;;;;;;1.17;0.60;;;13.90;99.90;;;;;;4393961;32;20077;-60
2023/10/13 04:25:00;;;;;;;0.82;0.70;;;14.00;99.90;;;;;;4389817;32;20601;-60
2023/10/13 04:28:51;;;;;;;0.50;0.50;;;13.90;99.90;;;;;;4387266;32;20149;-58
2023/10/13 04:30:24;;;;;;;1.12;1.00;;;14.00;99.90;;;;;;4379477;32;20126;-60
2023/10/13 04:33:15;;;;;;;23.42;0.93;;;14.00;99.90;;;;;;4384493;32;20396;-61
2023/10/13 04:38:19;;;;;;;3.40;0.65;;;14.10;99.90;;;;;;4396435;32;20105;-59
2023/10/13 04:40:26;;;;;;;0.85;0.75;;;14.10;99.90;;;;;;4377613;32;20085;-60
2023/10/13 04:45:38;;;;;;;0.47;0.47;;;14.10;99.90;;;;;;4386181;32;20165;-60
2023/10/13 04:48:38;;;;;;;0.50;0.50;;;14.10;99.90;;;;;;4392176;32;20427;-60
2023/10/13 04:50:51;;;;;;;7.68;0.77;;;14.10;99.90;;;;;;4370274;32;20585;-61
2023/10/13 04:53:29;;;;;;;2.45;0.77;;;14.10;99.90;;;;;;4400134;32;20082;-60
2023/10/13 05:04:08;;;;;;;0.80;0.80;;;14.10;99.90;;;;;;4380516;32;20070;-60
2023/10/13 05:44:55;;;;;;;3.42;0.80;;;14.40;99.90;;;;;;4380316;32;20081;-60
2023/10/13 06:28:45;;;;;;;1.20;0.88;;;14.90;99.90;;;;;;4352775;32;20898;-61
2023/10/13 06:28:49;;;;;;;0.88;0.88;;;14.80;99.90;;;;;;4356625;32;20224;-61
2023/10/13 06:31:21;;;;;;;1.05;0.90;;;14.90;99.90;;;;;;4362028;32;20093;-60
2023/10/13 06:33:47;;;;;;;0.70;0.70;;;15.00;99.90;;;;;;4355512;32;20163;-61
2023/10/13 06:36:12;;;;;;;0.50;0.50;;;14.90;99.90;;;;;;4347904;32;20226;-61
2023/10/13 06:38:38;;;;;;;1.48;1.37;;;15.00;99.90;;;;;;4369943;32;20082;-61
2023/10/13 06:41:05;;;;;;;0.50;0.50;;;14.90;99.90;;;;;;4356739;32;20085;-61
2023/10/13 06:43:43;;;;;;;1.73;1.10;;;14.90;99.90;;;;;;4360495;32;22013;-61
2023/10/13 06:46:23;;;;;;;0.50;0.50;;;15.00;99.90;;;;;;4353874;32;20999;-62
2023/10/13 06:48:52;;;;;;;0.93;0.93;;;15.10;99.90;;;;;;4359560;32;20133;-61
2023/10/13 06:51:21;;;;;;;2.15;0.65;;;15.10;99.90;;;;;;4366330;32;20890;-62
2023/10/13 06:53:48;;;;;;;1.80;0.70;;;15.20;99.90;;;;;;4370837;32;20090;-61
2023/10/13 06:56:22;;;;;;;4.20;1.00;;;15.20;99.90;;;;;;4354866;32;20097;-60
2023/10/13 06:58:48;;;;;;;3.03;0.62;;;15.20;99.90;;;;;;4358931;32;21012;-61
2023/10/13 07:01:15;;;;;;;0.75;0.75;;;15.30;99.90;;;;;;4357556;32;20612;-62
2023/10/13 07:03:43;;;;;;;0.93;0.60;;;15.40;99.90;;;;;;4372275;32;20081;-62
2023/10/13 07:06:17;;;;;;;2.65;1.15;;;15.50;99.90;;;;;;4354007;32;20093;-61
2023/10/13 07:08:51;;;;;;;1.65;0.75;;;15.60;99.90;;;;;;4366307;32;20093;-61
2023/10/13 07:11:32;;;;;;;13.32;0.75;;;15.70;99.90;;;;;;4374907;32;20122;-61
2023/10/13 07:14:00;;;;;;;0.40;0.40;;;15.80;99.90;;;;;;4365666;32;20134;-61
2023/10/13 07:16:35;;;;;;;0.50;0.50;;;15.80;99.90;;;;;;4372616;32;20105;-62
2023/10/13 07:19:05;;;;;;;1.12;0.85;;;15.80;99.90;;;;;;4359176;32;20114;-61
2023/10/13 07:21:31;;;;;;;0.77;0.77;;;15.90;99.90;;;;;;4368717;32;20164;-62
2023/10/13 07:24:12;;;;;;;5.72;0.95;;;16.00;99.90;;;;;;4371811;32;21164;-61
2023/10/13 07:26:42;;;;;;;0.50;0.50;;;16.00;99.90;;;;;;4365913;32;20995;-62
2023/10/13 07:29:09;;;;;;;0.60;0.60;;;16.00;99.90;;;;;;4338617;32;20280;-61
2023/10/13 07:31:37;;;;;;;1.83;1.00;;;16.10;99.90;;;;;;4370091;32;20106;-62
2023/10/13 07:34:12;;;;;;;6.03;1.45;;;16.10;99.90;;;;;;4352850;32;20114;-62
2023/10/13 07:36:39;;;;;;;0.82;0.55;;;16.10;99.90;;;;;;4364131;32;20524;-61
2023/10/13 07:39:21;;;;;;;0.88;0.65;;;16.20;99.90;;;;;;4377746;32;20161;-62
2023/10/13 07:41:53;;;;;;;1.62;0.62;;;16.20;99.90;;;;;;4367290;32;20094;-62
2023/10/13 07:44:28;;;;;;;2.15;1.58;;;16.20;99.90;;;;;;4378574;32;20929;-60
2023/10/13 07:47:10;;;;;;;0.75;0.75;;;16.30;99.90;;;;;;4362187;32;20086;-62
2023/10/13 07:49:39;;;;;;;3.95;0.75;;;16.30;99.90;;;;;;4356478;32;20118;-61
2023/10/13 07:52:26;;;;;;;0.45;0.45;;;16.30;99.90;;;;;;4351630;32;20442;-61
2023/10/13 07:54:59;;;;;;;1.42;0.62;;;16.30;99.90;;;;;;4343926;32;21390;-62
2023/10/13 07:57:29;;;;;;;0.65;0.65;;;16.40;99.90;;;;;;4336935;32;20213;-61
2023/10/13 08:00:06;;;;;;;5.03;1.33;;;16.50;99.90;;;;;;4350080;32;20479;-60
2023/10/13 08:03:35;;;;;;;9.90;1.73;;;16.50;99.90;;;;;;4348327;32;20109;-59
2023/10/13 08:05:29;;;;;;;0.40;0.40;;;16.50;99.90;;;;;;4358585;32;20129;-59
2023/10/13 08:07:55;;;;;;;7.90;1.25;;;16.50;99.90;;;;;;4357540;32;20097;-57
2023/10/13 08:10:27;;;;;;;3.72;0.82;;;16.50;99.90;;;;;;4366937;32;20090;-59
2023/10/13 08:12:54;;;;;;;1.25;1.15;;;16.50;99.90;;;;;;4378010;32;20143;-59
2023/10/13 08:15:31;;;;;;;4.00;0.90;;;16.50;99.90;;;;;;4363348;32;20596;-60
2023/10/13 08:17:58;;;;;;;0.88;0.85;;;16.50;99.90;;;;;;4367865;32;20090;-60
2023/10/13 08:20:26;;;;;;;0.40;0.40;;;16.60;99.90;;;;;;4368624;32;20347;-59
2023/10/13 08:23:13;;;;;;;0.80;0.70;;;16.60;99.90;;;;;;4371537;32;20944;-59
2023/10/13 08:26:29;;;;;;;0.57;0.57;;;16.70;99.90;;;;;;4348003;32;20113;-60
2023/10/13 08:31:41;;;;;;;2.05;0.85;;;16.80;99.90;;;;;;4363781;32;20114;-62
2023/10/13 08:33:59;;;;;;;3.75;0.88;;;16.90;99.90;;;;;;4352017;32;20763;-62
2023/10/13 08:36:28;;;;;;;2.22;0.70;;;16.90;99.90;;;;;;4344224;32;20085;-62
2023/10/13 08:38:55;;;;;;;0.62;0.62;;;17.00;99.90;;;;;;4361071;32;20405;-60
2023/10/13 08:43:50;;;;;;;0.60;0.52;;;17.10;99.90;;;;;;4363989;32;20517;-61
2023/10/13 08:46:51;;;;;;;0.90;0.77;;;17.10;99.90;;;;;;4369552;32;20223;-62
2023/10/13 08:49:15;;;;;;;0.95;0.60;;;17.10;99.90;;;;;;4348291;32;20094;-62
2023/10/13 08:51:46;;;;;;;0.40;0.40;;;17.10;99.90;;;;;;4365804;32;20164;-61
2023/10/13 08:55:03;;;;;;;16.50;1.05;;;17.10;99.90;;;;;;4354589;32;20081;-62
2023/10/13 08:57:19;;;;;;;3.15;0.60;;;17.20;99.90;;;;;;4351381;32;20169;-60
2023/10/13 08:59:53;;;;;;;0.93;0.65;;;17.20;99.90;;;;;;4361798;32;21331;-62
2023/10/13 09:02:22;;;;;;;2.03;1.30;;;17.20;99.90;;;;;;4354830;32;20101;-63
2023/10/13 09:04:59;;;;;;;0.65;0.65;;;17.20;99.90;;;;;;4354074;32;21516;-61
2023/10/13 09:07:25;;;;;;;1.75;0.73;;;17.20;99.90;;;;;;4354776;32;20605;-62
2023/10/13 09:12:38;;;;;;;0.70;0.70;;;17.30;99.90;;;;;;4371863;32;20113;-62
2023/10/13 09:17:48;;;;;;;1.05;0.80;;;17.30;99.90;;;;;;4361202;32;20110;-63
2023/10/13 09:23:07;;;;;;;1.27;0.80;;;17.40;99.90;;;;;;4342214;32;20089;-61
2023/10/13 09:25:36;;;;;;;0.70;0.70;;;17.40;99.90;;;;;;4361171;32;20121;-61
2023/10/13 09:28:10;;;;;;;0.93;0.85;;;17.40;99.90;;;;;;4341755;32;20113;-62
2023/10/13 09:30:44;;;;;;;0.60;0.60;;;17.40;99.90;;;;;;4349190;32;20821;-62
2023/10/13 09:33:15;;;;;;;0.65;0.65;;;17.40;99.90;;;;;;4343200;32;20109;-62
2023/10/13 09:35:43;;;;;;;2.05;0.90;;;17.30;99.90;;;;;;4349813;32;20478;-61
2023/10/13 09:38:11;;;;;;;0.40;0.40;;;17.40;99.90;;;;;;4354370;32;20793;-63
2023/10/13 09:40:38;;;;;;;0.60;0.60;;;17.30;99.90;;;;;;4366305;32;20101;-63
2023/10/13 09:43:07;;;;;;;0.82;0.82;;;17.30;99.90;;;;;;4364467;32;20507;-62
2023/10/13 09:45:38;;;;;;;0.43;0.43;;;17.30;99.90;;;;;;4374985;32;20585;-62
2023/10/13 09:48:21;;;;;;;0.50;0.50;;;17.30;99.90;;;;;;4368884;32;20101;-63
2023/10/13 09:50:48;;;;;;;0.40;0.40;;;17.20;99.90;;;;;;4377356;32;20106;-62
2023/10/13 09:53:17;;;;;;;0.52;0.40;;;17.30;99.90;;;;;;4357054;32;20589;-63
2023/10/13 09:55:49;;;;;;;2.05;0.70;;;17.30;99.90;;;;;;4378811;32;20097;-62
2023/10/13 09:58:18;;;;;;;0.40;0.40;;;17.30;99.90;;;;;;4378942;32;20134;-63
2023/10/13 10:00:49;;;;;;;0.40;0.40;;;17.30;99.90;;;;;;4375249;32;20833;-63
2023/10/13 10:03:39;;;;;;;3.67;0.80;;;17.40;99.90;;;;;;4362420;32;20246;-62
2023/10/13 10:06:07;;;;;;;0.47;0.47;;;17.50;99.90;;;;;;4364894;32;20199;-61
2023/10/13 10:08:34;;;;;;;5.00;0.88;;;17.50;99.90;;;;;;4359884;32;20234;-62
2023/10/13 10:11:24;;;;;;;1.45;0.75;;;17.60;99.90;;;;;;4382805;32;21064;-63
2023/10/13 10:14:04;;;;;;;0.47;0.47;;;17.70;99.90;;;;;;4368965;32;20114;-63
2023/10/13 10:16:42;;;;;;;0.40;0.40;;;17.70;99.90;;;;;;4356217;32;20390;-62
2023/10/13 10:19:07;;;;;;;0.57;0.57;;;17.80;99.90;;;;;;4369641;32;21058;-62
2023/10/13 10:21:35;;;;;;;1.23;1.00;;;17.70;99.90;;;;;;4367964;32;20070;-62
2023/10/13 10:24:13;;;;;;;0.50;0.50;;;17.80;99.90;;;;;;4369812;32;20499;-60
2023/10/13 10:26:51;;;;;;;0.47;0.47;;;17.80;99.90;;;;;;4368736;32;20485;-61
2023/10/13 10:29:17;;;;;;;2.12;0.85;;;17.80;99.90;;;;;;4369682;32;20097;-62
2023/10/13 10:31:45;;;;;;;0.73;0.73;;;17.80;99.90;;;;;;4368162;32;20117;-61
2023/10/13 10:34:18;;;;;;;1.48;0.60;;;17.80;99.90;;;;;;4383201;32;20077;-62
2023/10/13 10:36:53;;;;;;;0.43;0.43;;;17.80;99.90;;;;;;4363082;32;20312;-62
2023/10/13 10:39:18;;;;;;;1.45;0.60;;;17.70;99.90;;;;;;4351153;32;20094;-64
2023/10/13 10:41:51;;;;;;;0.60;0.60;;;17.70;99.90;;;;;;4384339;32;20106;-62
2023/10/13 10:44:33;;;;;;;7.57;1.50;;;17.70;99.90;;;;;;4386677;32;20530;-62
2023/10/13 10:47:09;;;;;;;1.75;0.75;;;17.70;99.90;;;;;;4364280;32;20110;-63
2023/10/13 10:49:38;;;;;;;0.77;0.68;;;17.70;99.90;;;;;;4378465;32;20529;-62
2023/10/13 10:52:09;;;;;;;0.82;0.82;;;17.70;99.90;;;;;;4363792;32;20148;-63
2023/10/13 10:54:34;;;;;;;0.68;0.65;;;17.70;99.90;;;;;;4373788;32;21273;-62
2023/10/13 10:57:11;;;;;;;0.68;0.68;;;17.70;99.90;;;;;;4371556;32;21123;-62
2023/10/13 10:59:37;;;;;;;3.50;1.52;;;17.70;99.90;;;;;;4367987;32;20126;-63
2023/10/13 11:02:03;;;;;;;0.77;0.77;;;17.70;99.90;;;;;;4377560;32;20878;-63
2023/10/13 11:04:33;;;;;;;0.40;0.40;;;17.70;99.90;;;;;;4369516;32;20348;-62
2023/10/13 11:07:00;;;;;;;0.68;0.68;;;17.80;99.90;;;;;;4369501;32;20101;-62
2023/10/13 11:12:14;;;;;;;0.70;0.70;;;17.80;99.90;;;;;;4378057;32;21748;-62
2023/10/13 11:14:40;;;;;;;2.85;0.80;;;17.90;99.90;;;;;;4355732;32;20117;-60
2023/10/13 11:17:18;;;;;;;0.45;0.45;;;17.90;99.90;;;;;;4376620;32;20101;-61
2023/10/13 11:19:43;;;;;;;2.20;1.00;;;17.90;99.90;;;;;;4384578;32;21302;-60
2023/10/13 11:22:28;;;;;;;3.12;1.67;;;18.00;99.90;;;;;;4379911;32;20189;-62
2023/10/13 11:24:55;;;;;;;0.47;0.47;;;18.00;99.90;;;;;;4363949;32;20395;-62
2023/10/13 11:27:21;;;;;;;0.55;0.55;;;18.10;99.90;;;;;;4378919;32;20097;-62
2023/10/13 11:29:52;;;;;;;0.73;0.73;;;18.10;99.90;;;;;;4373295;32;20592;-66
2023/10/13 11:32:20;;;;;;;0.73;0.73;;;18.10;99.90;;;;;;4358281;32;20997;-61
2023/10/13 11:34:48;;;;;;;0.62;0.62;;;18.10;99.90;;;;;;4368628;32;20101;-62
2023/10/13 11:37:28;;;;;;;0.50;0.50;;;18.20;99.90;;;;;;4376670;32;20093;-62
2023/10/13 11:39:53;;;;;;;0.87;0.70;;;18.20;99.90;;;;;;4372161;32;20434;-62
2023/10/13 11:42:19;;;;;;;0.55;0.55;;;18.20;99.90;;;;;;4358494;32;20076;-63
2023/10/13 11:44:45;;;;;;;1.90;0.80;;;18.20;99.90;;;;;;4370844;32;20082;-63
2023/10/13 11:48:14;;;;;;;0.88;0.50;;;18.30;99.90;;;;;;4368221;32;20090;-63
2023/10/13 11:49:58;;;;;;;1.73;1.23;;;18.30;99.90;;;;;;4359234;32;92046;-62
2023/10/13 11:52:26;;;;;;;1.92;0.93;;;18.30;99.90;;;;;;4376438;32;20825;-62
2023/10/13 11:54:52;;;;;;;0.50;0.50;;;18.40;99.90;;;;;;4378415;32;20081;-63
2023/10/13 11:57:19;;;;;;;0.82;0.77;;;18.40;99.90;;;;;;4379797;32;20090;-64
2023/10/13 11:59:52;;;;;;;5.05;1.25;;;18.50;99.90;;;;;;4378803;32;20086;-62
2023/10/13 12:04:54;;;;;;;3.78;0.98;;;18.60;99.90;;;;;;4385206;32;20094;-63
2023/10/13 12:07:39;;;;;;;0.60;0.52;;;18.60;99.90;;;;;;4383629;32;20156;-63
2023/10/13 12:10:06;;;;;;;0.60;0.60;;;18.60;99.90;;;;;;4370857;32;20094;-62
2023/10/13 12:12:40;;;;;;;8.10;1.05;;;18.70;99.90;;;;;;4376042;32;20101;-62
2023/10/13 12:15:09;;;;;;;0.50;0.50;;;18.70;99.90;;;;;;4387888;32;20591;-62
2023/10/13 12:17:35;;;;;;;1.43;1.07;;;18.80;99.90;;;;;;4379192;32;20101;-62
2023/10/13 12:20:05;;;;;;;0.80;0.40;;;18.90;99.90;;;;;;4381672;32;20573;-60
2023/10/13 12:23:31;;;;;;;6.20;1.10;;;18.90;99.90;;;;;;4365345;32;20110;-62
2023/10/13 12:28:40;;;;;;;1.35;0.82;;;19.10;99.90;;;;;;4369174;32;20398;-62
2023/10/13 12:30:48;;;;;;;7.97;1.60;;;19.10;99.90;;;;;;4365010;32;20173;-61
2023/10/13 12:33:23;;;;;;;0.30;0.30;;;19.20;99.90;;;;;;4378348;32;20775;-62
2023/10/13 12:48:55;;;;;;;0.52;0.52;;;19.20;99.90;;;;;;4377354;32;20140;-60
2023/10/13 12:48:58;;;;;;;0.50;0.50;;;19.40;99.90;;;;;;4379028;32;20445;-61
2023/10/13 12:52:16;;;;;;;18.83;0.85;;;19.50;99.90;;;;;;4394058;32;20094;-62
2023/10/13 12:54:47;;;;;;;0.50;0.50;;;19.50;99.90;;;;;;4377780;32;20640;-61
2023/10/13 12:57:15;;;;;;;0.65;0.65;;;19.60;99.90;;;;;;4392518;32;20513;-60
2023/10/13 12:59:41;;;;;;;0.32;0.32;;;19.60;99.90;;;;;;4397281;32;20061;-61
2023/10/13 13:02:07;;;;;;;0.30;0.30;;;19.70;99.90;;;;;;4399872;32;20209;-62
2023/10/13 13:04:36;;;;;;;2.10;0.45;;;19.70;99.90;;;;;;4398924;32;20726;-62
2023/10/13 13:07:04;;;;;;;1.58;0.85;;;19.80;99.90;;;;;;4400939;32;20146;-61
2023/10/13 13:09:30;;;;;;;0.55;0.55;;;19.90;99.90;;;;;;4397038;32;20450;-61
2023/10/13 13:11:57;;;;;;;0.50;0.50;;;20.00;99.90;;;;;;4396829;32;20474;-60
2023/10/13 13:14:28;;;;;;;6.95;1.75;;;20.00;99.90;;;;;;4385162;32;20107;-61
2023/10/13 13:17:04;;;;;;;3.20;0.50;;;20.10;99.90;;;;;;4383116;32;20122;-62
2023/10/13 13:19:33;;;;;;;4.20;1.30;;;20.20;99.90;;;;;;4373570;32;20106;-59
2023/10/13 13:21:59;;;;;;;0.70;0.67;;;20.30;99.90;;;;;;4381285;32;20565;-62
2023/10/13 13:24:24;;;;;;;3.50;1.08;;;20.30;99.90;;;;;;4395539;32;20088;-61
2023/10/13 13:26:54;;;;;;;0.45;0.35;;;20.40;99.90;;;;;;4391345;32;20081;-61
2023/10/13 13:29:20;;;;;;;0.40;0.30;;;20.60;99.90;;;;;;4395668;32;20085;-61
2023/10/13 13:31:46;;;;;;;0.45;0.45;;;20.70;99.90;;;;;;4397971;32;20140;-61
2023/10/13 13:34:13;;;;;;;0.40;0.40;;;20.80;99.90;;;;;;4398561;32;20065;-61
2023/10/13 13:36:43;;;;;;;1.33;1.12;;;20.80;99.90;;;;;;4395774;32;20093;-62
2023/10/13 13:39:09;;;;;;;1.25;0.73;;;20.80;99.90;;;;;;4372891;32;20125;-62
2023/10/13 13:41:35;;;;;;;1.10;0.70;;;20.80;99.90;;;;;;4398756;32;20082;-62
2023/10/13 13:44:13;;;;;;;1.20;0.73;;;20.80;99.90;;;;;;4387517;32;20089;-61
2023/10/13 13:46:41;;;;;;;0.65;0.50;;;20.90;99.90;;;;;;4399345;32;20144;-62
2023/10/13 13:49:08;;;;;;;0.55;0.45;;;20.80;99.90;;;;;;4397525;32;20073;-62
2023/10/13 13:51:34;;;;;;;1.75;0.85;;;20.80;99.90;;;;;;4384932;32;20485;-62
2023/10/13 13:54:00;;;;;;;3.83;1.40;;;20.80;99.90;;;;;;4399853;32;20105;-62
2023/10/13 13:56:28;;;;;;;0.30;0.30;;;20.90;99.90;;;;;;4380001;32;20089;-61
2023/10/13 13:58:55;;;;;;;0.40;0.40;;;21.00;99.90;;;;;;4396904;32;20109;-62
2023/10/13 14:01:21;;;;;;;2.85;1.45;;;21.10;99.90;;;;;;4384914;32;20082;-62
2023/10/13 14:03:50;;;;;;;10.80;1.17;;;21.20;99.90;;;;;;4400448;32;20478;-62
2023/10/13 14:06:20;;;;;;;5.07;0.75;;;21.20;99.90;;;;;;4375902;32;20082;-61
2023/10/13 14:08:48;;;;;;;;;;;21.20;99.90;;;;;;4400330;32;20081;-62
2023/10/13 14:11:22;;;;;;;0.55;0.55;;;21.20;99.90;;;;;;4400695;32;20318;-60
2023/10/13 14:13:48;;;;;;;3.55;0.93;;;21.20;99.90;;;;;;4398545;32;20481;-62
2023/10/13 14:16:16;;;;;;;1.12;0.93;;;21.20;99.90;;;;;;4400309;32;20106;-59
2023/10/13 14:18:46;;;;;;;1.35;1.08;;;21.20;99.90;;;;;;4396418;32;20126;-61
2023/10/13 14:21:16;;;;;;;1.02;0.57;;;21.20;99.90;;;;;;4388026;32;20525;-60
2023/10/13 14:23:45;;;;;;;8.43;1.20;;;21.30;99.90;;;;;;4374688;32;20083;-62
2023/10/13 14:26:12;;;;;;;0.40;0.40;;;21.50;99.90;;;;;;4398318;32;20781;-61
2023/10/13 14:28:50;;;;;;;9.20;0.95;;;21.50;99.90;;;;;;4398506;32;20414;-62
2023/10/13 14:31:16;;;;;;;1.15;0.60;;;21.50;99.90;;;;;;4397231;32;20089;-62
2023/10/13 14:33:41;;;;;;;0.80;0.62;;;21.40;99.90;;;;;;4366945;32;20371;-61
2023/10/13 14:36:10;;;;;;;0.32;0.32;;;21.40;99.90;;;;;;4398221;32;20079;-62
2023/10/13 14:38:35;;;;;;;0.70;0.62;;;21.40;99.90;;;;;;4381281;32;20066;-62
2023/10/13 14:41:01;;;;;;;4.90;0.95;;;21.30;99.90;;;;;;4397831;32;20061;-59
2023/10/13 14:43:27;;;;;;;0.68;0.68;;;21.30;99.90;;;;;;4383541;32;20097;-62
2023/10/13 14:45:53;;;;;;;3.15;1.77;;;21.30;99.90;;;;;;4397715;32;20081;-62
2023/10/13 14:48:19;;;;;;;0.73;0.73;;;21.30;99.90;;;;;;4395910;32;20180;-62
2023/10/13 14:50:45;;;;;;;1.62;0.75;;;21.20;99.90;;;;;;4382374;32;20458;-62
2023/10/13 14:53:11;;;;;;;1.23;0.93;;;21.20;99.90;;;;;;4395912;32;20097;-62
2023/10/13 14:55:39;;;;;;;1.75;0.80;;;21.20;99.90;;;;;;4375417;32;20126;-62
2023/10/13 14:58:07;;;;;;;1.85;0.85;;;21.10;99.90;;;;;;4393480;32;20593;-61
2023/10/13 15:00:33;;;;;;;17.12;1.35;;;21.10;99.90;;;;;;4395729;32;20456;-62
2023/10/13 15:03:01;;;;;;;0.93;0.80;;;21.20;99.90;;;;;;4399356;32;20101;-62
2023/10/13 15:05:29;;;;;;;0.40;0.40;;;21.10;99.90;;;;;;4375326;32;20468;-62
2023/10/13 15:07:55;;;;;;;0.90;0.65;;;21.20;99.90;;;;;;4373738;32;20082;-62
2023/10/13 15:10:21;;;;;;;2.45;1.05;;;21.10;99.90;;;;;;4396076;32;20062;-60
2023/10/13 15:12:48;;;;;;;0.82;0.50;;;21.10;99.90;;;;;;4385037;32;20105;-62
2023/10/13 15:15:15;;;;;;;1.05;0.50;;;21.10;99.90;;;;;;4384289;32;20143;-62
2023/10/13 15:17:42;;;;;;;3.25;1.15;;;21.00;99.90;;;;;;4393302;32;20512;-61
2023/10/13 15:20:09;;;;;;;17.48;3.22;;;21.00;99.90;;;;;;4382186;32;20070;-62